createdAt,value
2019-01-14T00:00:37.688Z,3.10
2019-01-14T00:03:27.068Z,3.03
2019-01-14T00:06:16.160Z,3.43
2019-01-14T00:09:31.043Z,3.40
2019-01-14T00:12:17.548Z,3.90
2019-01-14T00:15:07.310Z,3.37
2019-01-14T00:17:56.421Z,3.37
2019-01-14T00:20:45.827Z,3.97
2019-01-14T00:23:35.203Z,3.97
2019-01-14T00:26:24.339Z,4.30
2019-01-14T00:29:13.663Z,4.17
2019-01-14T00:32:03.147Z,4.80
2019-01-14T00:34:52.258Z,3.43
2019-01-14T00:37:41.367Z,4.23
2019-01-14T00:40:30.429Z,5.07
2019-01-14T00:43:19.881Z,4.20
2019-01-14T00:46:28.492Z,5.23
2019-01-14T00:49:17.611Z,5.47
2019-01-14T00:52:06.802Z,4.87
2019-01-14T00:54:56.153Z,3.70
2019-01-14T00:57:45.315Z,6.20
2019-01-14T01:00:27.522Z,4.30
2019-01-14T01:03:16.620Z,5.40
2019-01-14T01:06:06.092Z,3.23
2019-01-14T01:08:55.280Z,5.00
2019-01-14T01:11:44.383Z,6.20
2019-01-14T01:14:33.498Z,6.30
2019-01-14T01:17:22.991Z,5.43
2019-01-14T01:20:52.459Z,4.67
2019-01-14T01:23:41.551Z,5.63
2019-01-14T01:26:23.074Z,6.30
2019-01-14T01:29:12.715Z,5.47
2019-01-14T01:32:01.793Z,4.93
2019-01-14T01:34:51.234Z,5.50
2019-01-14T01:37:40.618Z,4.50
2019-01-14T01:40:29.699Z,4.37
2019-01-14T01:43:19.714Z,5.00
2019-01-14T01:46:08.839Z,5.17
2019-01-14T01:48:58.310Z,4.50
2019-01-14T01:51:47.473Z,5.40
2019-01-14T01:54:36.546Z,6.13
2019-01-14T01:57:25.909Z,5.47
2019-01-14T02:00:56.079Z,5.47
2019-01-14T02:03:45.506Z,5.53
2019-01-14T02:06:39.151Z,5.50
2019-01-14T02:09:25.448Z,5.13
2019-01-14T02:12:14.837Z,5.33
2019-01-14T02:15:03.947Z,6.50
2019-01-14T02:17:53.365Z,6.83
2019-01-14T02:20:42.734Z,5.33
2019-01-14T02:23:32.154Z,5.70
2019-01-14T02:26:21.303Z,5.20
2019-01-14T02:29:03.298Z,6.03
2019-01-14T02:31:52.417Z,6.30
2019-01-14T02:34:41.839Z,5.70
2019-01-14T02:37:30.997Z,6.00
2019-01-14T02:40:21.772Z,5.77
2019-01-14T02:43:11.377Z,6.47
2019-01-14T02:46:00.464Z,5.87
2019-01-14T02:48:49.822Z,6.10
2019-01-14T02:51:39.185Z,5.20
2019-01-14T02:54:28.523Z,6.43
2019-01-14T02:57:17.672Z,5.80
2019-01-14T03:00:27.491Z,7.77
2019-01-14T03:03:36.138Z,5.83
2019-01-14T03:06:25.483Z,6.20
2019-01-14T03:09:14.949Z,6.90
2019-01-14T03:15:32.785Z,7.33
2019-01-14T03:18:22.574Z,6.07
2019-01-14T03:21:12.567Z,8.13
2019-01-14T03:24:01.650Z,7.67
2019-01-14T03:26:42.126Z,6.87
2019-01-14T03:29:31.476Z,6.47
2019-01-14T03:32:21.262Z,6.07
2019-01-14T03:35:10.620Z,5.83
2019-01-14T03:38:19.208Z,5.80
2019-01-14T03:41:08.303Z,6.60
2019-01-14T03:43:57.657Z,5.97
2019-01-14T03:46:47.008Z,5.30
2019-01-14T03:49:36.151Z,6.47
2019-01-14T03:52:25.254Z,5.57
2019-01-14T03:55:14.511Z,6.83
2019-01-14T03:58:03.906Z,6.80
2019-01-14T04:03:47.584Z,5.83
2019-01-14T04:06:55.803Z,5.13
2019-01-14T04:09:45.154Z,7.27
2019-01-14T04:12:34.533Z,6.30
2019-01-14T04:15:24.005Z,6.83
2019-01-14T04:18:13.684Z,5.73
2019-01-14T04:21:03.127Z,5.37
2019-01-14T04:23:52.249Z,6.73
2019-01-14T04:26:41.354Z,6.10
2019-01-14T04:29:23.461Z,5.13
2019-01-14T04:32:12.561Z,5.30
2019-01-14T04:35:02.072Z,6.67
2019-01-14T04:37:51.602Z,6.67
2019-01-14T04:41:00.291Z,6.70
2019-01-14T04:43:49.404Z,5.50
2019-01-14T04:46:38.850Z,6.07
2019-01-14T04:49:28.219Z,6.07
2019-01-14T04:52:17.360Z,4.60
2019-01-14T04:58:41.534Z,5.20
2019-01-14T05:01:30.965Z,5.20
2019-01-14T05:04:20.293Z,5.57
2019-01-14T05:07:09.910Z,5.00
2019-01-14T05:09:59.021Z,6.40
2019-01-14T05:12:48.116Z,5.83
2019-01-14T05:15:37.248Z,7.40
2019-01-14T05:18:26.574Z,4.93
2019-01-14T05:21:35.176Z,5.53
2019-01-14T05:24:24.315Z,6.10
2019-01-14T05:27:13.479Z,6.07
2019-01-14T05:29:55.754Z,6.37
2019-01-14T05:33:03.925Z,5.63
2019-01-14T05:35:53.024Z,5.83
2019-01-14T05:38:42.805Z,6.33
2019-01-14T05:41:32.157Z,6.27
2019-01-14T05:44:21.244Z,6.47
2019-01-14T05:47:03.577Z,6.27
2019-01-14T05:49:52.942Z,5.63
2019-01-14T05:52:42.126Z,4.57
2019-01-14T05:55:31.230Z,5.40
2019-01-14T05:58:20.606Z,3.73
2019-01-14T06:01:09.686Z,4.37
2019-01-14T06:03:58.766Z,4.20
2019-01-14T06:06:47.900Z,4.50
2019-01-14T06:09:36.971Z,2.03
2019-01-14T06:12:26.733Z,3.77
2019-01-14T06:18:14.470Z,4.57
2019-01-14T06:21:03.579Z,3.00
2019-01-14T06:23:53.341Z,3.03
2019-01-14T06:26:42.544Z,2.30
2019-01-14T06:29:31.659Z,2.47
2019-01-14T06:32:21.142Z,2.90
2019-01-14T06:35:10.640Z,2.73
2019-01-14T06:38:00.084Z,3.73
2019-01-14T06:40:49.223Z,3.37
2019-01-14T06:43:38.335Z,3.93
2019-01-14T06:46:27.685Z,3.47
2019-01-14T06:49:09.993Z,3.43
2019-01-14T06:51:59.122Z,5.00
2019-01-14T06:54:48.203Z,2.90
2019-01-14T06:57:37.296Z,3.07
2019-01-14T07:01:06.993Z,2.90
2019-01-14T07:03:56.103Z,3.00
2019-01-14T07:06:45.213Z,3.93
2019-01-14T07:09:34.297Z,4.17
2019-01-14T07:12:23.382Z,3.80
2019-01-14T07:15:12.568Z,4.20
2019-01-14T07:18:01.702Z,3.20
2019-01-14T07:20:50.878Z,3.90
2019-01-14T07:26:48.207Z,3.27
2019-01-14T07:29:30.022Z,3.70
2019-01-14T07:32:19.166Z,3.83
2019-01-14T07:35:08.334Z,3.67
2019-01-14T07:37:57.456Z,4.00
2019-01-14T07:40:46.539Z,3.43
2019-01-14T07:43:35.667Z,3.00
2019-01-14T07:46:24.763Z,3.80
2019-01-14T07:49:14.168Z,4.10
2019-01-14T07:52:03.675Z,3.27
2019-01-14T07:54:53.034Z,3.50
2019-01-14T07:57:42.411Z,4.87
2019-01-14T08:00:32.064Z,3.47
2019-01-14T08:03:21.392Z,3.23
2019-01-14T08:06:10.496Z,4.70
2019-01-14T08:08:59.623Z,3.30
2019-01-14T08:11:48.739Z,3.93
2019-01-14T08:14:37.855Z,4.17
2019-01-14T08:17:26.929Z,2.80
2019-01-14T08:20:16.432Z,3.30
2019-01-14T08:23:05.542Z,3.80
2019-01-14T08:25:55.206Z,3.03
2019-01-14T08:28:44.324Z,3.50
2019-01-14T08:31:24.507Z,3.40
2019-01-14T08:34:14.625Z,4.10
2019-01-14T08:37:04.074Z,3.43
2019-01-14T08:39:53.198Z,3.40
2019-01-14T08:48:57.803Z,3.83
2019-01-14T08:51:47.171Z,3.83
2019-01-14T08:54:36.290Z,3.67
2019-01-14T08:57:25.399Z,3.00
2019-01-14T09:00:55.498Z,4.50
2019-01-14T09:03:44.619Z,4.37
2019-01-14T09:06:33.722Z,3.93
2019-01-14T09:09:23.137Z,4.37
2019-01-14T09:12:12.245Z,4.93
2019-01-14T09:15:01.334Z,3.37
2019-01-14T09:21:05.584Z,3.43
2019-01-14T09:23:54.768Z,3.87
2019-01-14T09:26:44.998Z,3.00
2019-01-14T09:29:34.948Z,3.07
2019-01-14T09:32:17.097Z,3.23
2019-01-14T09:35:06.285Z,3.27
2019-01-14T09:37:55.362Z,3.50
2019-01-14T09:40:44.472Z,3.07
2019-01-14T09:43:53.103Z,3.63
2019-01-14T09:47:01.549Z,3.33
2019-01-14T09:49:50.929Z,3.37
2019-01-14T09:52:40.050Z,4.03
2019-01-14T09:55:29.392Z,3.07
2019-01-14T09:58:38.038Z,4.37
2019-01-14T10:01:27.147Z,3.70
2019-01-14T10:04:16.219Z,3.03
2019-01-14T10:07:05.703Z,3.03
2019-01-14T10:09:54.831Z,3.00
2019-01-14T10:12:43.956Z,2.70
2019-01-14T10:15:33.063Z,4.00
2019-01-14T10:18:22.182Z,3.77
2019-01-14T10:21:11.970Z,3.30
2019-01-14T10:24:01.066Z,3.90
2019-01-14T10:26:50.186Z,2.50
2019-01-14T10:29:39.556Z,4.07
2019-01-14T10:32:21.946Z,3.73
2019-01-14T10:35:11.118Z,2.63
2019-01-14T10:38:00.808Z,4.20
2019-01-14T10:40:50.491Z,3.03
2019-01-14T10:43:40.548Z,2.97
2019-01-14T10:46:22.718Z,3.03
2019-01-14T10:49:11.812Z,2.60
2019-01-14T10:52:00.904Z,3.70
2019-01-14T10:54:50.273Z,4.70
2019-01-14T10:57:39.433Z,4.20
2019-01-14T11:01:09.250Z,3.63
2019-01-14T11:09:49.535Z,4.17
2019-01-14T11:12:38.933Z,3.53
2019-01-14T11:15:28.403Z,4.50
2019-01-14T11:18:17.776Z,4.57
2019-01-14T11:21:07.150Z,4.77
2019-01-14T11:23:56.283Z,3.97
2019-01-14T11:26:45.688Z,3.73
2019-01-14T11:29:53.896Z,3.63
2019-01-14T11:32:35.679Z,3.13
2019-01-14T11:35:25.164Z,4.43
2019-01-14T11:38:35.939Z,2.87
2019-01-14T11:41:26.189Z,2.27
2019-01-14T11:44:15.296Z,4.27
2019-01-14T11:47:04.502Z,3.50
2019-01-14T11:49:53.586Z,3.27
2019-01-14T11:52:43.102Z,3.43
2019-01-14T11:55:32.276Z,2.20
2019-01-14T11:58:21.392Z,2.80
2019-01-14T12:01:10.706Z,2.30
2019-01-14T12:04:00.076Z,2.60
2019-01-14T12:07:08.696Z,2.90
2019-01-14T12:09:57.820Z,3.53
2019-01-14T12:12:46.897Z,3.20
2019-01-14T12:15:36.021Z,2.47
2019-01-14T12:18:25.180Z,2.10
2019-01-14T12:21:14.267Z,2.80
2019-01-14T12:24:03.632Z,1.80
2019-01-14T12:26:54.203Z,2.00
2019-01-14T12:29:43.854Z,2.53
2019-01-14T12:32:25.835Z,2.00
2019-01-14T12:35:14.927Z,2.87
2019-01-14T12:41:18.761Z,3.07
2019-01-14T12:44:27.385Z,2.53
2019-01-14T12:47:16.750Z,2.97
2019-01-14T12:50:25.765Z,2.23
2019-01-14T12:53:14.965Z,2.87
2019-01-14T12:56:04.039Z,2.80
2019-01-14T12:58:53.403Z,3.00
2019-01-14T13:01:42.517Z,3.00
2019-01-14T13:04:31.620Z,3.40
2019-01-14T13:07:20.705Z,2.73
2019-01-14T13:10:11.294Z,1.47
2019-01-14T13:13:00.362Z,1.63
2019-01-14T13:15:49.438Z,1.97
2019-01-14T13:18:38.884Z,1.57
2019-01-14T13:21:27.956Z,2.40
2019-01-14T13:24:17.037Z,2.33
2019-01-14T13:27:07.421Z,1.70
2019-01-14T13:29:56.538Z,2.10
2019-01-14T13:32:38.809Z,1.40
2019-01-14T13:35:27.892Z,1.77
2019-01-14T13:38:17.506Z,1.50
2019-01-14T13:41:06.679Z,1.90
2019-01-14T13:43:55.755Z,2.00
2019-01-14T13:46:45.115Z,2.00
2019-01-14T13:49:34.204Z,2.97
2019-01-14T13:58:35.265Z,1.43
2019-01-14T14:01:24.423Z,2.73
2019-01-14T14:04:13.771Z,2.03
2019-01-14T14:07:02.857Z,2.27
2019-01-14T14:09:52.207Z,2.13
2019-01-14T14:12:41.345Z,1.67
2019-01-14T14:15:49.520Z,1.93
2019-01-14T14:18:38.875Z,2.90
2019-01-14T14:21:28.368Z,1.83
2019-01-14T14:24:17.718Z,2.50
2019-01-14T14:27:06.831Z,2.33
2019-01-14T14:29:56.010Z,2.53
2019-01-14T14:32:36.274Z,2.07
2019-01-14T14:35:25.993Z,2.47
2019-01-14T14:38:15.196Z,2.00
2019-01-14T14:41:04.371Z,2.93
2019-01-14T14:44:12.965Z,2.57
2019-01-14T14:47:02.724Z,1.97
2019-01-14T14:49:51.819Z,2.27
2019-01-14T14:52:40.936Z,2.33
2019-01-14T14:55:30.678Z,2.50
2019-01-14T14:58:20.332Z,3.57
2019-01-14T15:01:09.530Z,2.43
2019-01-14T15:04:18.169Z,3.10
2019-01-14T15:07:07.375Z,2.90
2019-01-14T15:09:56.817Z,2.20
2019-01-14T15:12:46.335Z,1.80
2019-01-14T15:15:35.573Z,2.57
2019-01-14T15:18:24.956Z,2.87
2019-01-14T15:21:14.311Z,2.57
2019-01-14T15:24:03.406Z,3.17
2019-01-14T15:26:52.486Z,2.73
2019-01-14T15:29:41.909Z,2.83
2019-01-14T15:32:24.320Z,2.40
2019-01-14T15:35:13.426Z,2.50
2019-01-14T15:38:02.550Z,2.47
2019-01-14T15:40:51.653Z,2.13
2019-01-14T15:43:40.753Z,2.50
2019-01-14T15:46:29.880Z,2.67
2019-01-14T15:49:18.975Z,2.40
2019-01-14T15:52:08.403Z,2.97
2019-01-14T15:54:57.563Z,2.97
2019-01-14T15:57:47.236Z,3.07
2019-01-14T16:00:36.367Z,2.50
2019-01-14T16:03:25.768Z,2.27
2019-01-14T16:06:15.249Z,2.70
2019-01-14T16:09:25.191Z,2.20
2019-01-14T16:12:14.857Z,2.70
2019-01-14T16:15:23.050Z,2.67
2019-01-14T16:18:12.464Z,2.83
2019-01-14T16:21:01.587Z,2.70
2019-01-14T16:23:50.720Z,2.70
2019-01-14T16:26:39.850Z,2.40
2019-01-14T16:29:28.977Z,2.33
2019-01-14T16:32:18.562Z,2.17
2019-01-14T16:34:59.001Z,2.33
2019-01-14T16:37:48.437Z,2.43
2019-01-14T16:40:37.813Z,2.47
2019-01-14T16:43:26.956Z,2.60
2019-01-14T16:46:16.031Z,2.93
2019-01-14T16:51:59.986Z,2.23
2019-01-14T16:54:29.837Z,2.03
2019-01-14T16:57:19.312Z,2.50
2019-01-14T17:00:50.088Z,2.70
2019-01-14T17:03:39.179Z,2.30
2019-01-14T17:06:28.391Z,2.83
2019-01-14T17:09:18.042Z,2.30
2019-01-14T17:12:07.139Z,2.20
2019-01-14T17:14:56.574Z,2.73
2019-01-14T17:17:45.697Z,2.83
2019-01-14T17:20:34.803Z,2.43
2019-01-14T17:23:23.943Z,2.13
2019-01-14T17:26:13.057Z,2.23
2019-01-14T17:29:02.686Z,3.30
2019-01-14T17:31:51.801Z,1.77
2019-01-14T17:34:33.811Z,2.40
2019-01-14T17:37:23.246Z,2.70
2019-01-14T17:40:53.194Z,2.90
2019-01-14T17:43:42.276Z,2.70
2019-01-14T17:46:31.435Z,2.80
2019-01-14T17:49:20.547Z,1.97
2019-01-14T17:52:09.635Z,2.80
2019-01-14T17:54:58.732Z,2.57
2019-01-14T17:57:47.949Z,3.43
2019-01-14T18:00:37.396Z,2.90
2019-01-14T18:03:26.537Z,3.80
2019-01-14T18:05:56.707Z,2.83
2019-01-14T18:08:26.576Z,3.20
2019-01-14T18:11:01.648Z,4.10
2019-01-14T18:13:28.668Z,2.93
2019-01-14T18:15:58.518Z,3.83
2019-01-14T18:18:28.450Z,3.73
2019-01-14T18:21:05.276Z,4.27
2019-01-14T18:23:30.196Z,3.50
2019-01-14T18:26:00.180Z,2.90
2019-01-14T18:28:30.056Z,2.97
2019-01-14T18:31:00.382Z,3.40
2019-01-14T18:33:30.610Z,2.90
2019-01-14T18:36:00.866Z,2.77
2019-01-14T18:38:30.691Z,3.50
2019-01-14T18:41:00.543Z,3.30
2019-01-14T18:43:30.411Z,3.17
2019-01-14T18:46:00.303Z,3.33
2019-01-14T18:48:30.170Z,3.83
2019-01-14T18:51:00.189Z,3.23
2019-01-14T18:53:30.549Z,3.20
2019-01-14T18:56:00.392Z,4.57
2019-01-14T18:58:30.289Z,3.70
2019-01-14T19:01:00.224Z,3.80
2019-01-14T19:03:30.103Z,2.80
2019-01-14T19:05:59.949Z,3.00
2019-01-14T19:08:30.368Z,3.27
2019-01-14T19:11:00.447Z,3.10
2019-01-14T19:13:30.561Z,3.13
2019-01-14T19:16:00.508Z,3.07
2019-01-14T19:18:30.608Z,3.17
2019-01-14T19:21:00.597Z,3.13
2019-01-14T19:23:30.527Z,3.17
2019-01-14T19:26:00.434Z,2.77
2019-01-14T19:28:30.408Z,3.00
2019-01-14T19:31:01.008Z,3.17
2019-01-14T19:33:31.333Z,2.90
2019-01-14T19:36:01.712Z,2.87
2019-01-14T19:38:31.535Z,3.70
2019-01-14T19:41:02.219Z,4.00
2019-01-14T19:43:32.171Z,3.27
2019-01-14T19:46:02.021Z,2.80
2019-01-14T19:48:32.197Z,3.07
2019-01-14T19:51:02.059Z,3.57
2019-01-14T19:53:32.259Z,3.07
2019-01-14T19:56:02.130Z,2.80
2019-01-14T19:58:32.019Z,4.00
2019-01-14T20:01:02.195Z,3.20
2019-01-14T20:03:32.283Z,3.47
2019-01-14T20:06:02.177Z,3.47
2019-01-14T20:08:32.028Z,2.93
2019-01-14T20:11:08.952Z,3.00
2019-01-14T20:13:33.823Z,2.83
2019-01-14T20:16:03.995Z,3.97
2019-01-14T20:18:34.243Z,3.07
2019-01-14T20:21:04.125Z,3.50
2019-01-14T20:23:34.218Z,2.83
2019-01-14T20:26:04.744Z,2.70
2019-01-14T20:28:34.896Z,3.37
2019-01-14T20:31:05.995Z,3.30
2019-01-14T20:33:37.792Z,2.67
2019-01-14T20:36:08.282Z,2.70
2019-01-14T20:38:38.787Z,2.10
2019-01-14T20:41:16.292Z,3.10
2019-01-14T20:43:41.519Z,3.50
2019-01-14T20:46:13.886Z,2.80
2019-01-14T20:48:44.005Z,3.10
2019-01-14T20:51:13.884Z,3.50
2019-01-14T20:53:43.751Z,2.87
2019-01-14T20:56:13.654Z,3.50
2019-01-14T20:58:43.480Z,3.43
2019-01-14T21:01:13.396Z,3.27
2019-01-14T21:03:43.535Z,3.30
2019-01-14T21:06:13.444Z,2.77
2019-01-14T21:08:43.285Z,2.97
2019-01-14T21:11:13.419Z,3.37
2019-01-14T21:13:43.328Z,3.40
2019-01-14T21:16:13.258Z,4.03
2019-01-14T21:18:43.181Z,3.80
2019-01-14T21:21:13.045Z,3.60
2019-01-14T21:23:43.247Z,3.30
2019-01-14T21:26:13.172Z,3.90
2019-01-14T21:28:43.462Z,3.47
2019-01-14T21:31:13.388Z,3.63
2019-01-14T21:33:43.463Z,3.23
2019-01-14T21:36:13.351Z,3.10
2019-01-14T21:38:43.558Z,3.93
2019-01-14T21:41:13.984Z,4.57
2019-01-14T21:43:44.181Z,3.63
2019-01-14T21:46:14.106Z,3.90
2019-01-14T21:48:44.644Z,4.27
2019-01-14T21:51:14.531Z,4.87
2019-01-14T21:53:45.043Z,6.50
2019-01-14T21:56:14.909Z,4.30
2019-01-14T21:58:44.767Z,4.43
2019-01-14T22:01:15.052Z,4.00
2019-01-14T22:03:45.007Z,4.23
2019-01-14T22:06:15.159Z,3.47
2019-01-14T22:08:45.032Z,3.87
2019-01-14T22:11:15.230Z,4.70
2019-01-14T22:13:45.091Z,4.57
2019-01-14T22:16:14.943Z,3.73
2019-01-14T22:18:45.039Z,3.90
2019-01-14T22:21:14.916Z,4.20
2019-01-14T22:23:45.129Z,4.10
2019-01-14T22:26:14.996Z,4.37
2019-01-14T22:28:45.349Z,4.17
2019-01-14T22:31:15.438Z,3.80
2019-01-14T22:33:45.318Z,4.47
2019-01-14T22:36:15.210Z,4.67
2019-01-14T22:38:45.048Z,3.93
2019-01-14T22:41:15.418Z,5.00
2019-01-14T22:43:45.585Z,4.37
2019-01-14T22:46:15.458Z,3.90
2019-01-14T22:48:45.324Z,4.17
2019-01-14T22:51:15.197Z,3.60
2019-01-14T22:53:45.509Z,4.10
2019-01-14T22:56:15.402Z,4.37
2019-01-14T22:58:45.250Z,3.93
2019-01-14T23:01:37.969Z,4.40
2019-01-14T23:04:08.409Z,3.67
2019-01-14T23:06:38.316Z,3.87
2019-01-14T23:09:10.251Z,4.60
2019-01-14T23:11:40.207Z,4.00
2019-01-14T23:14:10.319Z,3.70
2019-01-14T23:16:40.153Z,3.83
2019-01-14T23:19:10.253Z,4.30
2019-01-14T23:21:40.123Z,3.43
2019-01-14T23:24:10.028Z,3.63
2019-01-14T23:26:39.887Z,3.70
2019-01-14T23:29:09.729Z,3.77
2019-01-14T23:31:39.600Z,4.10
2019-01-14T23:34:09.460Z,4.50
2019-01-14T23:36:39.304Z,4.10
2019-01-14T23:39:10.824Z,3.13
2019-01-14T23:41:40.650Z,2.73
2019-01-14T23:44:10.675Z,3.13
2019-01-14T23:46:40.544Z,4.27
2019-01-14T23:49:10.778Z,4.60
2019-01-14T23:51:40.657Z,4.13
2019-01-14T23:54:10.772Z,3.30
2019-01-14T23:56:41.329Z,3.97
2019-01-14T23:59:11.429Z,2.97
